Time;durP1;ratioP1;P1;durP2;ratioP2;P2;SDS_P1;SDS_P2;PMS_P1;PMS_P2;Temp;Humidity;BMP_temperature;BMP_pressure;BME280_temperature;BME280_humidity;BME280_pressure;Samples;Min_cycle;Max_cycle;Signal;HPM_P1;HPM_P2
2023/01/15 00:01:30;;;;;;;;;1.00;1.00;;;;;9.26;72.21;100114.53;5021236;28;45385;-54
2023/01/15 00:03:57;;;;;;;;;0.50;0.50;;;;;9.19;72.42;100099.78;5021358;28;45215;-54
2023/01/15 00:06:24;;;;;;;;;2.50;1.00;;;;;9.24;72.27;100112.84;5020926;28;45265;-54
2023/01/15 00:08:51;;;;;;;;;1.00;1.00;;;;;9.23;72.17;100109.34;5020895;28;45449;-53
2023/01/15 00:11:17;;;;;;;;;1.50;1.50;;;;;9.22;72.07;100112.88;5020647;28;45238;-55
2023/01/15 00:13:44;;;;;;;;;1.00;1.00;;;;;9.21;72.23;100113.75;5021013;28;45324;-53
2023/01/15 00:16:18;;;;;;;;;3.50;1.50;;;;;9.22;72.12;100119.84;5020788;28;45250;-53
2023/01/15 00:18:52;;;;;;;;;1.00;1.00;;;;;9.14;72.10;100117.38;5020783;28;46311;-55
2023/01/15 00:21:19;;;;;;;;;1.00;1.00;;;;;9.14;72.18;100114.75;5020989;28;45242;-53
2023/01/15 00:29:17;;;;;;;;;2.25;1.25;;;;;9.09;72.16;100122.72;5020660;28;45823;-53
2023/01/15 00:31:51;;;;;;;;;0.00;0.00;;;;;9.08;72.08;100118.38;5020664;28;45246;-54
2023/01/15 00:34:16;;;;;;;;;0.00;0.00;;;;;9.09;72.18;100112.22;5020893;28;45463;-54
2023/01/15 00:36:42;;;;;;;;;1.25;1.25;;;;;9.12;72.32;100119.19;5019240;28;45335;-54
2023/01/15 00:39:07;;;;;;;;;1.00;1.00;;;;;9.10;72.38;100121.81;5020692;28;46171;-54
2023/01/15 00:41:32;;;;;;;;;1.50;1.00;;;;;9.10;72.07;100132.28;5020498;28;45310;-53
2023/01/15 00:43:58;;;;;;;;;3.00;0.00;;;;;9.07;72.21;100124.50;5020784;28;45329;-54
2023/01/15 00:46:23;;;;;;;;;1.75;0.25;;;;;9.07;72.25;100119.25;5020589;28;45300;-55
2023/01/15 00:48:49;;;;;;;;;2.25;0.75;;;;;9.04;72.28;100121.06;5019104;28;46869;-54
2023/01/15 00:51:14;;;;;;;;;1.00;1.00;;;;;9.07;72.31;100129.72;5019054;28;45363;-51
2023/01/15 00:53:39;;;;;;;;;2.00;1.00;;;;;9.07;72.17;100127.13;5019317;28;45896;-54
2023/01/15 00:56:05;;;;;;;;;1.00;1.00;;;;;9.08;72.40;100136.72;5018499;28;45281;-53
2023/01/15 00:58:30;;;;;;;;;2.50;0.00;;;;;9.09;72.33;100132.31;5020510;28;45325;-54
2023/01/15 01:00:58;;;;;;;;;0.25;0.25;;;;;9.12;72.14;100129.66;5020255;28;45319;-54
2023/01/15 01:03:23;;;;;;;;;3.00;1.00;;;;;9.13;72.08;100133.97;5020538;28;45225;-53
2023/01/15 01:05:49;;;;;;;;;1.00;1.00;;;;;9.10;72.22;100136.69;5018716;28;45201;-53
2023/01/15 01:08:15;;;;;;;;;3.00;1.25;;;;;9.12;72.31;100137.53;5020290;28;46288;-54
2023/01/15 01:10:41;;;;;;;;;0.50;0.50;;;;;9.10;72.10;100123.56;5019760;28;45253;-54
2023/01/15 01:13:07;;;;;;;;;3.00;1.00;;;;;9.15;72.21;100097.28;5020290;28;45402;-56
2023/01/15 01:15:33;;;;;;;;;0.25;0.25;;;;;9.11;72.04;100093.84;5018749;28;45333;-54
2023/01/15 01:17:58;;;;;;;;;0.50;0.50;;;;;9.11;72.36;100107.81;5020337;28;45245;-54
2023/01/15 01:20:25;;;;;;;;;1.00;1.00;;;;;9.13;72.13;100125.28;5019708;28;45246;-54
2023/01/15 01:22:51;;;;;;;;;2.50;1.50;;;;;9.11;72.16;100120.91;5020397;28;45429;-54
2023/01/15 01:25:16;;;;;;;;;0.00;0.00;;;;;9.11;72.10;100128.78;5019463;28;45514;-54
2023/01/15 01:27:44;;;;;;;;;0.75;0.75;;;;;9.10;72.35;100129.66;5019961;28;45387;-54
2023/01/15 01:30:10;;;;;;;;;0.50;0.50;;;;;9.14;72.07;100138.34;5019635;28;45198;-53
2023/01/15 01:32:35;;;;;;;;;1.00;1.00;;;;;9.13;72.20;100141.00;5019891;28;45487;-54
2023/01/15 01:35:00;;;;;;;;;1.00;1.00;;;;;9.10;72.19;100147.16;5019694;28;45454;-52
2023/01/15 01:37:26;;;;;;;;;0.50;0.50;;;;;9.10;72.05;100145.41;5019934;28;46336;-53
2023/01/15 01:39:51;;;;;;;;;0.50;0.00;;;;;9.10;71.99;100142.78;5019418;28;45395;-54
2023/01/15 01:42:17;;;;;;;;;2.75;0.75;;;;;9.11;71.93;100138.41;5019678;28;45392;-54
2023/01/15 01:44:42;;;;;;;;;1.75;0.75;;;;;9.08;71.82;100149.81;5019685;28;45534;-54
2023/01/15 01:47:29;;;;;;;;;1.00;1.00;;;;;9.07;71.89;100153.31;5019576;28;45296;-54
2023/01/15 01:50:01;;;;;;;;;0.25;0.25;;;;;9.04;71.72;100152.50;5019529;28;45465;-54
2023/01/15 01:52:32;;;;;;;;;0.50;0.50;;;;;9.01;71.71;100148.19;5019653;28;45340;-54
2023/01/15 01:54:58;;;;;;;;;0.00;0.00;;;;;8.99;71.45;100146.47;5018912;28;45161;-53
2023/01/15 01:57:24;;;;;;;;;0.50;0.50;;;;;9.04;71.43;100160.38;5019408;28;45512;-53
2023/01/15 01:59:50;;;;;;;;;1.50;0.00;;;;;9.00;71.49;100156.94;5019336;28;45190;-53
2023/01/15 02:02:20;;;;;;;;;0.00;0.00;;;;;8.99;71.32;100164.81;5019649;28;45229;-53
2023/01/15 02:04:46;;;;;;;;;0.00;0.00;;;;;8.92;71.21;100166.69;5019494;28;45501;-54
2023/01/15 02:07:12;;;;;;;;;1.00;0.00;;;;;8.94;71.31;100162.28;5019473;28;46041;-54
2023/01/15 02:09:37;;;;;;;;;0.50;0.00;;;;;8.93;71.39;100152.69;5021487;28;45323;-52
2023/01/15 02:12:13;;;;;;;;;0.50;0.50;;;;;8.88;71.26;100150.16;5023119;28;45325;-54
2023/01/15 02:14:50;;;;;;;;;2.75;1.75;;;;;8.90;71.20;100145.72;5022912;28;45368;-51
2023/01/15 02:18:06;;;;;;;;;0.00;0.00;;;;;8.91;71.22;100162.34;5022078;28;45427;-52
2023/01/15 02:20:39;;;;;;;;;2.00;0.25;;;;;8.89;71.24;100164.13;4980665;28;45330;-54
2023/01/15 02:23:12;;;;;;;;;2.00;0.00;;;;;8.89;71.45;100169.34;4981303;28;45422;-49
2023/01/15 02:26:02;;;;;;;;;1.00;1.00;;;;;8.87;71.40;100173.78;5007784;28;45225;-58
2023/01/15 02:28:33;;;;;;;;;0.00;0.00;;;;;8.87;71.18;100185.09;5022407;28;45459;-54
2023/01/15 02:31:07;;;;;;;;;0.25;0.25;;;;;8.86;71.30;100190.38;5022772;28;45338;-53
2023/01/15 02:33:39;;;;;;;;;1.00;0.00;;;;;8.82;71.40;100181.69;5022673;28;45174;-54
2023/01/15 02:36:07;;;;;;;;;0.00;0.00;;;;;8.85;71.05;100199.97;5022668;28;45346;-53
2023/01/15 02:38:42;;;;;;;;;0.00;0.00;;;;;8.86;71.22;100193.00;5022402;28;45411;-54
2023/01/15 02:41:15;;;;;;;;;1.00;1.00;;;;;8.86;71.28;100195.63;5022102;28;45392;-54
2023/01/15 02:43:47;;;;;;;;;2.00;2.00;;;;;8.88;71.27;100199.06;5022617;28;45250;-53
2023/01/15 02:46:15;;;;;;;;;1.50;1.50;;;;;8.83;71.20;100212.25;5022554;28;45295;-54
2023/01/15 02:48:45;;;;;;;;;2.00;1.00;;;;;8.84;71.35;100186.91;5022186;28;46411;-54
2023/01/15 02:51:14;;;;;;;;;0.00;0.00;;;;;8.81;71.31;100176.50;5022343;28;45300;-54
2023/01/15 02:53:43;;;;;;;;;0.25;0.25;;;;;8.77;71.34;100187.00;5022487;28;45316;-52
2023/01/15 02:56:14;;;;;;;;;0.75;0.75;;;;;8.78;71.18;100199.22;5021983;28;45418;-53
2023/01/15 02:58:42;;;;;;;;;2.50;0.00;;;;;8.85;71.03;100209.59;5022081;28;46042;-54
2023/01/15 03:01:18;;;;;;;;;3.50;1.50;;;;;8.85;71.04;100201.75;5022114;28;45489;-54
2023/01/15 03:03:50;;;;;;;;;1.00;1.00;;;;;8.85;70.98;100197.34;5022573;28;45228;-54
2023/01/15 03:06:40;;;;;;;;;1.00;0.00;;;;;8.85;70.94;100205.22;5021968;28;45470;-53
2023/01/15 03:09:06;;;;;;;;;1.00;0.00;;;;;8.80;70.83;100206.19;5019988;28;46357;-54
2023/01/15 03:11:37;;;;;;;;;3.25;1.00;;;;;8.82;71.28;100214.88;5021930;28;45498;-54
2023/01/15 03:14:17;;;;;;;;;0.00;0.00;;;;;8.82;70.91;100217.50;5022121;28;45229;-53
2023/01/15 03:16:46;;;;;;;;;0.00;0.00;;;;;8.84;71.03;100213.09;5021957;28;45345;-54
2023/01/15 03:19:20;;;;;;;;;4.00;0.25;;;;;8.84;71.10;100208.75;5021541;28;45349;-51
2023/01/15 03:21:55;;;;;;;;;1.50;0.00;;;;;8.86;70.47;100221.81;5019816;28;45328;-54
2023/01/15 03:24:32;;;;;;;;;1.50;0.00;;;;;8.85;70.82;100220.09;5021676;28;45321;-51
2023/01/15 03:26:58;;;;;;;;;2.25;1.00;;;;;8.82;70.89;100234.09;5021685;28;45478;-54
2023/01/15 03:29:29;;;;;;;;;0.50;0.25;;;;;8.82;70.83;100238.44;5021556;28;45329;-52
2023/01/15 03:31:55;;;;;;;;;1.00;0.00;;;;;8.78;70.86;100230.66;5021690;28;45253;-52
2023/01/15 03:34:21;;;;;;;;;0.00;0.00;;;;;8.77;70.72;100233.31;5022087;28;45441;-54
2023/01/15 03:36:46;;;;;;;;;2.25;0.00;;;;;8.76;70.89;100224.56;5021614;28;45250;-52
2023/01/15 03:39:12;;;;;;;;;0.25;0.25;;;;;8.77;70.68;100214.97;5020010;28;46085;-53
2023/01/15 03:41:43;;;;;;;;;1.00;0.00;;;;;8.75;70.52;100214.09;5021311;28;45172;-54
2023/01/15 03:44:42;;;;;;;;;1.25;0.00;;;;;8.70;70.57;100201.06;5022087;28;45404;-54
2023/01/15 03:47:43;;;;;;;;;0.00;0.00;;;;;8.72;70.29;100217.66;5021487;28;45210;-53
2023/01/15 03:50:42;;;;;;;;;0.50;0.00;;;;;8.71;70.53;100207.19;5013938;28;46312;-53
2023/01/15 03:53:16;;;;;;;;;1.00;0.50;;;;;8.69;70.60;100212.47;5021387;28;45341;-54
2023/01/15 03:55:49;;;;;;;;;0.25;0.00;;;;;8.71;70.26;100228.16;5021481;28;45309;-54
2023/01/15 03:58:26;;;;;;;;;0.00;0.00;;;;;8.69;70.32;100235.16;5021110;28;45456;-54
2023/01/15 04:00:57;;;;;;;;;0.00;0.00;;;;;8.64;69.95;100222.16;5021289;28;45482;-53
2023/01/15 04:03:25;;;;;;;;;0.00;0.00;;;;;8.62;70.06;100223.91;5021198;28;45344;-55
2023/01/15 04:05:53;;;;;;;;;0.00;0.00;;;;;8.60;69.91;100236.16;5021354;28;45420;-55
2023/01/15 04:08:19;;;;;;;;;1.75;1.75;;;;;8.58;69.85;100237.94;5021255;28;45573;-55
2023/01/15 04:10:52;;;;;;;;;0.00;0.00;;;;;8.59;69.77;100229.19;5020625;28;46303;-55
2023/01/15 04:13:17;;;;;;;;;0.00;0.00;;;;;8.55;69.87;100238.84;5021145;28;45268;-55
2023/01/15 04:15:43;;;;;;;;;1.25;0.00;;;;;8.53;69.81;100238.00;5021150;28;45237;-56
2023/01/15 04:18:08;;;;;;;;;0.00;0.00;;;;;8.54;69.83;100228.38;5021215;28;45460;-56
2023/01/15 04:20:33;;;;;;;;;1.25;1.00;;;;;8.52;69.61;100212.69;5020814;28;45929;-54
2023/01/15 04:22:59;;;;;;;;;0.00;0.00;;;;;8.51;69.68;100238.91;5021174;28;45418;-55
2023/01/15 04:25:24;;;;;;;;;1.75;0.00;;;;;8.47;69.47;100232.00;5020901;28;45238;-55
2023/01/15 04:27:53;;;;;;;;;0.00;0.00;;;;;8.42;69.61;100219.78;5020898;28;45234;-55
2023/01/15 04:30:18;;;;;;;;;0.00;0.00;;;;;8.45;69.31;100218.88;5020637;28;46074;-54
2023/01/15 04:32:43;;;;;;;;;0.00;0.00;;;;;8.45;69.30;100196.19;5019055;28;45266;-55
2023/01/15 04:35:09;;;;;;;;;0.25;0.25;;;;;8.45;69.18;100211.00;5020920;28;45393;-55
2023/01/15 04:37:34;;;;;;;;;0.00;0.00;;;;;8.43;69.13;100200.56;5021086;28;45326;-55
2023/01/15 04:39:59;;;;;;;;;0.75;0.00;;;;;8.43;69.22;100211.03;5020276;28;46208;-55
2023/01/15 04:45:09;;;;;;;;;0.75;0.00;;;;;8.37;68.89;100237.31;5020779;28;45350;-57
2023/01/15 04:47:34;;;;;;;;;0.00;0.00;;;;;8.37;68.50;100229.44;5020648;28;45407;-55
2023/01/15 04:50:00;;;;;;;;;0.00;0.00;;;;;8.32;68.82;100236.50;5020561;28;46027;-55
2023/01/15 04:52:25;;;;;;;;;0.00;0.00;;;;;8.28;68.65;100233.06;5020570;28;45444;-54
2023/01/15 04:54:53;;;;;;;;;0.00;0.00;;;;;8.26;68.49;100234.84;5020471;28;45310;-54
2023/01/15 04:57:19;;;;;;;;;0.00;0.00;;;;;8.27;68.47;100246.16;5020364;28;45332;-55
2023/01/15 04:59:44;;;;;;;;;0.00;0.00;;;;;8.25;68.36;100237.44;5020281;28;46034;-55
2023/01/15 05:02:09;;;;;;;;;0.00;0.00;;;;;8.20;68.58;100232.28;5019084;28;45210;-55
2023/01/15 05:04:35;;;;;;;;;0.00;0.00;;;;;8.20;68.29;100241.88;5019143;28;45242;-56
2023/01/15 05:07:02;;;;;;;;;0.00;0.00;;;;;8.18;68.26;100239.28;5020390;28;45321;-56
2023/01/15 05:09:27;;;;;;;;;0.00;0.00;;;;;8.16;68.35;100246.28;5018659;28;46207;-55
2023/01/15 05:11:53;;;;;;;;;0.00;0.00;;;;;8.13;68.21;100243.72;5020083;28;45304;-56
2023/01/15 05:14:18;;;;;;;;;0.00;0.00;;;;;8.12;68.26;100248.06;5020335;28;45268;-55
2023/01/15 05:16:43;;;;;;;;;0.00;0.00;;;;;8.11;67.95;100246.38;5020251;28;45538;-55
2023/01/15 05:19:09;;;;;;;;;0.00;0.00;;;;;8.13;68.07;100264.66;5020082;28;46143;-55
2023/01/15 05:21:39;;;;;;;;;0.00;0.00;;;;;8.11;67.71;100263.81;5020159;28;45383;-55
2023/01/15 05:24:07;;;;;;;;;0.00;0.00;;;;;8.08;67.80;100264.69;5020069;28;45244;-55
2023/01/15 05:26:34;;;;;;;;;1.00;0.00;;;;;8.06;67.77;100269.09;5019980;28;45418;-55
2023/01/15 05:29:01;;;;;;;;;1.00;0.00;;;;;8.02;68.05;100279.63;5019770;28;45321;-55
2023/01/15 05:31:27;;;;;;;;;0.00;0.00;;;;;8.01;67.57;100260.41;5020026;28;45366;-55
2023/01/15 05:33:54;;;;;;;;;0.75;0.00;;;;;8.00;67.88;100270.91;5018746;28;45270;-56
2023/01/15 05:36:21;;;;;;;;;0.00;0.00;;;;;8.00;67.63;100277.03;5019915;28;45443;-55
2023/01/15 05:38:47;;;;;;;;;0.00;0.00;;;;;8.00;67.59;100271.78;5019655;28;46447;-55
2023/01/15 05:44:02;;;;;;;;;0.00;0.00;;;;;7.96;67.46;100286.66;5021651;28;45290;-55
2023/01/15 05:46:28;;;;;;;;;0.00;0.00;;;;;7.98;67.48;100281.41;5023409;28;45181;-55
2023/01/15 05:48:53;;;;;;;;;0.00;0.00;;;;;7.99;67.37;100290.97;5023256;28;46363;-54
2023/01/15 05:51:19;;;;;;;;;0.50;0.00;;;;;7.99;67.41;100283.13;5023344;28;45222;-56
2023/01/15 05:53:44;;;;;;;;;1.25;0.25;;;;;7.95;67.27;100297.16;5023638;28;45313;-56
2023/01/15 05:56:10;;;;;;;;;0.00;0.00;;;;;7.96;67.51;100297.13;5005463;28;45279;-55
2023/01/15 05:58:36;;;;;;;;;0.00;0.00;;;;;7.97;67.16;100318.91;5005676;28;46859;-55
2023/01/15 06:01:09;;;;;;;;;0.00;0.00;;;;;7.88;67.01;100298.09;5023172;28;45235;-55
2023/01/15 06:03:35;;;;;;;;;0.25;0.00;;;;;7.92;66.83;100320.72;5023661;28;45230;-55
2023/01/15 06:06:01;;;;;;;;;0.00;0.00;;;;;7.87;66.98;100320.75;5022965;28;45245;-55
2023/01/15 06:08:27;;;;;;;;;0.00;0.00;;;;;7.93;66.76;100328.53;5021844;28;46152;-55
2023/01/15 06:10:52;;;;;;;;;0.00;0.00;;;;;7.89;66.73;100331.22;5021318;28;45389;-53
2023/01/15 06:13:18;;;;;;;;;0.00;0.00;;;;;7.90;66.57;100332.94;5023510;28;45312;-55
2023/01/15 06:15:44;;;;;;;;;1.00;0.00;;;;;7.83;66.91;100345.22;5022835;28;45260;-56
2023/01/15 06:18:10;;;;;;;;;0.00;0.00;;;;;7.81;66.69;100349.56;5023137;28;46213;-56
2023/01/15 06:20:36;;;;;;;;;0.00;0.00;;;;;7.75;66.95;100358.34;5021341;28;45904;-54
2023/01/15 06:23:02;;;;;;;;;0.00;0.00;;;;;7.68;66.73;100342.75;5021753;28;45266;-54
2023/01/15 06:25:27;;;;;;;;;0.00;0.00;;;;;7.78;66.50;100341.78;5022406;28;45463;-54
2023/01/15 06:27:52;;;;;;;;;0.25;0.00;;;;;7.76;66.39;100352.25;5022762;28;46119;-55
2023/01/15 06:30:18;;;;;;;;;1.00;0.00;;;;;7.73;66.47;100344.41;5022550;28;45151;-56
2023/01/15 06:32:43;;;;;;;;;1.00;0.00;;;;;7.80;66.23;100380.13;5022955;28;45304;-55
2023/01/15 06:35:09;;;;;;;;;2.25;0.00;;;;;7.77;66.03;100355.72;5022511;28;45495;-55
2023/01/15 06:37:34;;;;;;;;;2.75;1.00;;;;;7.76;66.19;100364.44;5022785;28;46018;-56
2023/01/15 06:40:00;;;;;;;;;0.00;0.00;;;;;7.73;66.30;100354.88;5022342;28;45260;-55
2023/01/15 06:47:56;;;;;;;;;0.00;0.00;;;;;7.71;65.99;100366.25;5022420;28;45442;-56
2023/01/15 06:50:22;;;;;;;;;0.00;0.00;;;;;7.71;65.54;100393.28;5022295;28;45217;-54
2023/01/15 06:52:47;;;;;;;;;0.25;0.00;;;;;7.63;65.79;100364.56;5022438;28;45567;-56
2023/01/15 06:55:12;;;;;;;;;0.00;0.00;;;;;7.61;65.97;100388.97;5021862;28;45493;-55
2023/01/15 06:57:38;;;;;;;;;0.00;0.00;;;;;7.58;65.83;100400.31;5022288;28;45403;-63
2023/01/15 07:00:05;;;;;;;;;0.00;0.00;;;;;7.59;65.63;100395.97;5022624;28;45307;-55
2023/01/15 07:02:31;;;;;;;;;0.00;0.00;;;;;7.59;65.44;100409.91;5020936;28;45322;-56
2023/01/15 07:04:56;;;;;;;;;0.00;0.00;;;;;7.55;65.81;100409.97;5022343;28;45427;-55
2023/01/15 07:07:22;;;;;;;;;1.00;0.00;;;;;7.54;65.48;100403.00;5022222;28;46013;-55
2023/01/15 07:09:47;;;;;;;;;0.00;0.00;;;;;7.48;65.70;100410.00;5021946;28;45289;-56
2023/01/15 07:12:12;;;;;;;;;0.00;0.00;;;;;7.52;65.58;100430.88;5022159;28;45185;-56
2023/01/15 07:14:38;;;;;;;;;1.00;0.00;;;;;7.51;65.44;100430.03;5022400;28;45511;-55
2023/01/15 07:17:03;;;;;;;;;0.00;0.00;;;;;7.48;65.61;100428.31;5022037;28;45222;-56
2023/01/15 07:19:29;;;;;;;;;0.00;0.00;;;;;7.53;65.37;100432.63;5021947;28;45264;-56
2023/01/15 07:21:54;;;;;;;;;1.00;0.00;;;;;7.49;65.36;100443.09;5020761;28;45204;-54
2023/01/15 07:24:20;;;;;;;;;0.00;0.00;;;;;7.41;65.48;100424.00;5021741;28;45447;-55
2023/01/15 07:26:45;;;;;;;;;0.00;0.00;;;;;7.47;65.30;100446.59;5021913;28;45191;-56
2023/01/15 07:29:10;;;;;;;;;0.00;0.00;;;;;7.47;65.24;100450.09;5021686;28;45263;-55
2023/01/15 07:31:37;;;;;;;;;1.25;0.50;;;;;7.46;65.25;100456.22;5037553;28;45354;-55
2023/01/15 07:34:03;;;;;;;;;1.00;0.00;;;;;7.40;65.68;100461.47;5021853;28;45352;-55
2023/01/15 07:36:28;;;;;;;;;0.00;0.00;;;;;7.40;65.56;100458.84;5020458;28;47240;-55
2023/01/15 07:38:54;;;;;;;;;0.00;0.00;;;;;7.39;65.44;100464.09;5021308;28;45321;-55
2023/01/15 07:49:47;;;;;;;;;0.25;0.00;;;;;7.34;65.94;100460.63;5021466;28;45424;-56
2023/01/15 07:52:15;;;;;;;;;10.00;9.50;;;;;7.34;65.75;100464.09;5021556;28;45467;-54
2023/01/15 07:54:41;;;;;;;;;1.25;1.00;;;;;7.34;65.88;100445.81;5021098;28;45234;-55
2023/01/15 07:57:07;;;;;;;;;1.00;1.00;;;;;7.32;65.83;100440.59;5021028;28;48181;-55
2023/01/15 07:59:32;;;;;;;;;2.00;1.00;;;;;7.32;65.81;100442.34;5019922;28;45380;-55
2023/01/15 08:01:58;;;;;;;;;0.00;0.00;;;;;7.31;65.83;100444.09;5021544;28;45324;-55
2023/01/15 08:04:23;;;;;;;;;1.00;0.00;;;;;7.31;66.00;100443.22;5019957;28;45720;-55
2023/01/15 08:06:48;;;;;;;;;0.00;0.00;;;;;7.28;66.04;100451.06;5020595;28;45404;-55
2023/01/15 08:09:14;;;;;;;;;2.00;2.00;;;;;7.25;66.21;100456.31;5021059;28;45459;-56
2023/01/15 08:17:07;;;;;;;;;0.00;0.00;;;;;7.23;66.21;100445.00;5020950;28;45262;-55
2023/01/15 08:19:32;;;;;;;;;1.00;1.00;;;;;7.28;65.93;100454.56;5020957;28;45270;-55
2023/01/15 08:22:00;;;;;;;;;1.00;0.00;;;;;7.29;66.14;100458.91;5021234;28;45341;-55
2023/01/15 08:24:25;;;;;;;;;2.25;1.00;;;;;7.22;66.10;100449.38;5020857;28;45416;-54
2023/01/15 08:26:52;;;;;;;;;0.00;0.00;;;;;7.25;66.16;100449.34;5020660;28;46286;-53
2023/01/15 08:29:18;;;;;;;;;0.00;0.00;;;;;7.25;66.15;100448.50;5020654;28;45620;-55
2023/01/15 08:31:44;;;;;;;;;0.00;0.00;;;;;7.27;65.91;100441.47;5020902;28;45249;-55
2023/01/15 08:34:09;;;;;;;;;2.00;1.00;;;;;7.32;65.96;100450.19;5020999;28;45303;-55
2023/01/15 08:36:35;;;;;;;;;2.00;0.50;;;;;7.31;65.95;100459.78;5020573;28;45452;-54
2023/01/15 08:39:00;;;;;;;;;1.00;1.00;;;;;7.31;66.11;100471.97;5020513;28;45167;-54
2023/01/15 08:41:26;;;;;;;;;1.75;0.00;;;;;7.34;65.69;100466.72;5019193;28;45469;-55
2023/01/15 08:43:51;;;;;;;;;0.00;0.00;;;;;7.38;65.55;100476.28;5020587;28;45197;-55
2023/01/15 08:46:17;;;;;;;;;2.00;0.00;;;;;7.41;65.80;100478.00;5020509;28;46128;-55
2023/01/15 08:48:43;;;;;;;;;1.25;0.00;;;;;7.37;65.92;100495.47;5020509;28;45372;-54
2023/01/15 08:51:10;;;;;;;;;0.50;0.50;;;;;7.39;65.76;100482.41;5020753;28;45483;-56
2023/01/15 08:53:35;;;;;;;;;3.00;2.00;;;;;7.43;65.90;100476.25;5020120;28;45331;-54
2023/01/15 08:56:01;;;;;;;;;1.50;0.25;;;;;7.49;65.88;100478.84;5020107;28;45742;-55
2023/01/15 08:58:28;;;;;;;;;4.00;1.50;;;;;7.47;65.90;100471.03;5020543;28;45344;-56
2023/01/15 09:00:54;;;;;;;;;0.75;0.00;;;;;7.54;65.84;100456.16;5020463;28;45253;-56
2023/01/15 09:03:20;;;;;;;;;3.75;3.50;;;;;7.61;65.80;100463.09;5018812;28;45254;-53
2023/01/15 09:05:45;;;;;;;;;2.50;0.25;;;;;7.63;65.68;100450.00;5019889;28;45489;-55
2023/01/15 09:08:10;;;;;;;;;1.00;0.25;;;;;7.67;65.35;100456.06;5018991;28;45188;-56
2023/01/15 09:10:36;;;;;;;;;0.00;0.00;;;;;7.65;65.75;100443.88;5018914;28;45328;-55
2023/01/15 09:13:03;;;;;;;;;3.25;0.50;;;;;7.75;65.42;100443.81;5020169;28;45290;-55
2023/01/15 09:15:29;;;;;;;;;6.00;1.00;;;;;7.78;65.55;100476.03;5020303;28;45634;-55
2023/01/15 09:17:55;;;;;;;;;3.00;1.25;;;;;7.80;65.95;100462.97;5020032;28;45324;-54
2023/01/15 09:20:21;;;;;;;;;2.75;1.00;;;;;7.91;65.50;100468.09;5020377;28;45325;-56
2023/01/15 09:22:47;;;;;;;;;2.00;2.00;;;;;7.95;65.60;100472.47;5019945;28;45490;-55
2023/01/15 09:25:15;;;;;;;;;1.00;1.00;;;;;8.00;65.48;100482.88;5019786;28;46169;-56
2023/01/15 09:27:40;;;;;;;;;5.25;2.00;;;;;8.10;65.16;100466.22;5019695;28;45237;-54
2023/01/15 09:30:07;;;;;;;;;1.75;1.00;;;;;8.14;65.30;100467.94;5019942;28;45336;-55
2023/01/15 09:32:33;;;;;;;;;2.00;1.00;;;;;8.21;65.28;100460.88;5007081;28;45242;-55
2023/01/15 09:34:58;;;;;;;;;1.75;0.00;;;;;8.20;65.26;100462.66;5019826;28;45331;-55
2023/01/15 09:37:23;;;;;;;;;3.00;0.75;;;;;8.32;65.01;100503.56;5018732;28;45310;-55
2023/01/15 09:39:49;;;;;;;;;2.25;0.75;;;;;8.38;64.96;100486.94;5019904;28;45453;-55
2023/01/15 09:42:45;;;;;;;;;3.00;1.25;;;;;8.40;64.85;100478.19;5019623;28;45317;-55
2023/01/15 09:45:25;;;;;;;;;1.00;1.00;;;;;8.51;64.64;100482.47;5019818;28;45418;-54
2023/01/15 09:48:12;;;;;;;;;2.00;2.00;;;;;8.59;64.88;100476.28;5019866;28;45265;-54
2023/01/15 09:50:51;;;;;;;;;1.00;1.00;;;;;8.62;64.48;100484.09;5020161;28;45407;-56
2023/01/15 09:53:25;;;;;;;;;1.25;0.75;;;;;8.68;64.50;100490.16;5019962;28;45479;-54
2023/01/15 09:55:53;;;;;;;;;1.00;1.00;;;;;8.72;64.53;100484.88;5018382;28;47233;-55
2023/01/15 09:58:26;;;;;;;;;3.50;2.75;;;;;8.79;64.14;100488.28;5019461;28;45244;-56
2023/01/15 10:00:51;;;;;;;;;1.25;1.25;;;;;8.83;64.24;100481.25;5019928;28;45342;-55
2023/01/15 10:03:26;;;;;;;;;0.00;0.00;;;;;8.83;64.68;100486.50;5019601;28;45329;-55
2023/01/15 10:06:08;;;;;;;;;0.50;0.50;;;;;8.91;63.92;100498.63;5019433;28;46347;-55
2023/01/15 10:08:45;;;;;;;;;1.00;1.00;;;;;8.91;64.12;100500.41;5019310;28;45390;-55
2023/01/15 10:11:21;;;;;;;;;2.00;1.50;;;;;9.01;64.14;100506.41;5019315;28;45401;-55
2023/01/15 10:14:10;;;;;;;;;2.75;1.00;;;;;9.08;63.66;100511.56;5019714;28;45301;-54
2023/01/15 10:16:35;;;;;;;;;2.00;1.50;;;;;9.09;64.01;100502.81;5019469;28;45267;-56
2023/01/15 10:19:02;;;;;;;;;3.00;2.00;;;;;9.15;63.54;100520.22;5019471;28;45225;-55
2023/01/15 10:21:44;;;;;;;;;1.25;1.25;;;;;9.19;63.87;100503.53;5019508;28;45352;-55
2023/01/15 10:24:35;;;;;;;;;4.50;1.50;;;;;9.23;63.67;100514.88;5018934;28;45300;-55
2023/01/15 10:27:14;;;;;;;;;3.00;2.00;;;;;9.31;63.32;100501.66;5019082;28;45506;-55
2023/01/15 10:29:48;;;;;;;;;1.00;0.50;;;;;9.29;63.28;100499.06;5020284;28;45462;-55
2023/01/15 10:32:41;;;;;;;;;2.00;1.00;;;;;9.31;63.36;100493.78;5022755;28;45330;-56
2023/01/15 10:35:20;;;;;;;;;2.75;1.00;;;;;9.36;63.64;100479.75;5022584;28;45478;-55
2023/01/15 10:37:53;;;;;;;;;0.00;0.00;;;;;9.41;62.70;100482.31;5021289;28;48017;-55
2023/01/15 10:40:42;;;;;;;;;1.00;1.00;;;;;9.36;63.56;100479.75;5022279;28;45416;-56
2023/01/15 10:43:44;;;;;;;;;1.00;1.00;;;;;9.40;63.54;100496.31;5022293;28;45456;-55
2023/01/15 10:46:15;;;;;;;;;0.50;0.00;;;;;9.40;63.59;100491.91;5022572;28;45234;-54
2023/01/15 10:48:45;;;;;;;;;2.50;0.75;;;;;9.44;63.17;100505.88;5022506;28;45328;-56
2023/01/15 10:51:33;;;;;;;;;0.50;0.00;;;;;9.44;63.03;100498.00;5022132;28;45331;-56
2023/01/15 10:54:26;;;;;;;;;0.50;0.25;;;;;9.44;63.23;100488.34;5022475;28;45337;-55
2023/01/15 10:57:00;;;;;;;;;1.75;1.75;;;;;9.49;63.41;100496.19;5021716;28;45597;-55
2023/01/15 10:59:46;;;;;;;;;1.00;1.00;;;;;9.54;63.21;100488.25;5022135;28;46236;-56
2023/01/15 11:02:29;;;;;;;;;3.00;2.00;;;;;9.56;63.29;100483.88;5022347;28;45556;-56
2023/01/15 11:04:54;;;;;;;;;0.50;0.50;;;;;9.62;63.03;100475.88;5022296;28;45242;-55
2023/01/15 11:07:49;;;;;;;;;3.00;2.00;;;;;9.65;63.09;100474.97;5022252;28;45328;-56
2023/01/15 11:10:17;;;;;;;;;1.75;1.25;;;;;9.70;62.99;100489.78;5021549;28;46626;-56
2023/01/15 11:21:24;;;;;;;;;2.50;1.00;;;;;10.02;62.84;100483.16;5021830;28;45233;-56
2023/01/15 11:23:51;;;;;;;;;3.00;1.50;;;;;10.04;62.64;100460.38;5020256;28;45317;-57
2023/01/15 11:26:22;;;;;;;;;1.00;0.00;;;;;10.09;62.78;100461.16;5022195;28;45759;-56
2023/01/15 11:28:49;;;;;;;;;2.50;1.00;;;;;10.20;62.01;100434.72;5020316;28;45207;-56
2023/01/15 11:31:15;;;;;;;;;3.00;2.00;;;;;10.27;61.86;100448.59;5021793;28;45233;-56
2023/01/15 11:34:01;;;;;;;;;2.25;0.00;;;;;10.33;61.55;100453.75;5021639;28;45309;-55
2023/01/15 11:36:28;;;;;;;;;0.00;0.00;;;;;10.35;60.60;100462.47;5021775;28;45367;-55
2023/01/15 11:38:54;;;;;;;;;1.25;1.25;;;;;10.37;61.56;100473.84;5021230;28;45463;-56
2023/01/15 11:52:54;;;;;;;;;2.00;2.00;;;;;10.50;61.53;100448.25;5021380;28;45759;-56
2023/01/15 11:55:23;;;;;;;;;1.25;1.00;;;;;10.55;61.29;100456.00;5021336;28;45459;-56
2023/01/15 11:57:49;;;;;;;;;4.50;1.50;;;;;10.55;60.50;100432.38;5019800;28;45353;-53
2023/01/15 12:00:20;;;;;;;;;0.00;0.00;;;;;10.59;60.83;100462.97;5020250;28;45389;-55
2023/01/15 12:02:49;;;;;;;;;3.75;1.00;;;;;10.64;60.37;100447.09;5021207;28;45333;-56
2023/01/15 12:05:34;;;;;;;;;3.50;1.75;;;;;10.64;60.55;100426.06;5117850;27;45366;-53
2023/01/15 12:08:21;;;;;;;;;0.50;0.50;;;;;10.73;60.45;100431.16;5097158;27;45266;-54
2023/01/15 12:11:30;;;;;;;;;3.75;1.00;;;;;10.82;60.21;100427.50;5093600;27;45394;-55
2023/01/15 12:14:16;;;;;;;;;2.75;2.00;;;;;10.97;60.25;100421.03;5073035;27;45535;-56
2023/01/15 12:16:54;;;;;;;;;6.00;5.75;;;;;11.01;60.59;100414.81;5066686;28;45229;-56
2023/01/15 12:19:49;;;;;;;;;2.75;2.00;;;;;11.13;60.15;100434.72;5076511;27;45224;-54
2023/01/15 12:22:40;;;;;;;;;3.00;2.00;;;;;11.18;59.68;100428.47;5076272;27;45466;-54
2023/01/15 12:25:23;;;;;;;;;6.00;1.75;;;;;11.20;59.22;100402.13;5075151;28;45450;-55
2023/01/15 12:27:54;;;;;;;;;7.00;2.00;;;;;11.17;59.86;100382.03;5075022;28;45499;-54
2023/01/15 12:30:25;;;;;;;;;3.50;2.00;;;;;11.27;60.04;100381.81;5077658;27;45263;-53
2023/01/15 12:33:17;;;;;;;;;2.50;2.00;;;;;11.29;60.25;100374.75;5076790;27;45409;-56
2023/01/15 12:35:55;;;;;;;;;0.00;0.00;;;;;11.29;60.38;100388.78;5075194;28;45280;-57